Glendale, California
Current Conditions -  °F | °C
As of 5:53 AM on Thursday 23 Oct 2014 (Local Time) from KBUR Reporting Station
Clear Clear  
Wind Chill: 58°   Ceiling: Unl
Heat Index: 58°   Visibility: 10mi
Dew Point: 45°   Wind: 0mph
Humidity: 62%   Direction: NA
Pressure: 29.95"   Gusts: NA
Location:  34.15°N, 118.24°W
Report Text: KBUR 231253Z 00000KT 10SM CLR 14/07 A2995 RMK AO2 SLP131 T01440072 $
Loading
Personal Weather Stations






























Interactive Weather Map
Tropical Storm Tracking
New forecast layout! Learn more

10-Day Weather Forecast

Advertisements
Track Severe Weather on mobile